createdAt,value
2023-10-15T00:03:34.747Z,102073.78
2023-10-15T00:06:04.567Z,102082.81
2023-10-15T00:08:34.508Z,102075.84
2023-10-15T00:11:03.101Z,102082.91
2023-10-15T00:13:31.734Z,102077.75
2023-10-15T00:16:00.596Z,102080.66
2023-10-15T00:18:30.461Z,102079.03
2023-10-15T00:21:03.067Z,102078.38
2023-10-15T00:23:32.338Z,102070.03
2023-10-15T00:26:00.972Z,102070.19
2023-10-15T00:28:30.568Z,102069.44
2023-10-15T00:31:02.227Z,102077.69
2023-10-15T00:33:32.953Z,102080.56
2023-10-15T00:36:01.988Z,102083.25
2023-10-15T00:38:30.136Z,102089.59
2023-10-15T00:41:02.498Z,102088.72
2023-10-15T00:43:31.966Z,102086.91
2023-10-15T00:46:00.902Z,102088.63
2023-10-15T00:48:35.662Z,102092.91
2023-10-15T00:51:10.584Z,102089.16
2023-10-15T00:53:48.884Z,102090.78
2023-10-15T00:56:20.710Z,102085.41
2023-10-15T00:59:09.746Z,102090.78
2023-10-15T01:01:41.468Z,102090.97
2023-10-15T01:04:11.090Z,102086.59
2023-10-15T01:06:45.360Z,102095.59
2023-10-15T01:09:20.174Z,102095.72
2023-10-15T01:11:57.708Z,102093.13
2023-10-15T01:14:33.462Z,102095.72
2023-10-15T01:17:03.077Z,102087.97
2023-10-15T01:19:35.984Z,102088.19
2023-10-15T01:22:10.718Z,102089.03
2023-10-15T01:24:43.428Z,102081.19
2023-10-15T01:27:15.084Z,102080.31
2023-10-15T01:29:46.099Z,102086.00
2023-10-15T01:32:17.364Z,102078.28
2023-10-15T01:34:50.568Z,102083.00
2023-10-15T01:37:25.708Z,102083.97
2023-10-15T01:40:01.871Z,102086.84
2023-10-15T01:42:41.654Z,102081.03
2023-10-15T01:45:32.105Z,102084.75
2023-10-15T01:48:07.024Z,102077.13
2023-10-15T01:50:45.593Z,102086.44
2023-10-15T01:53:14.270Z,102082.03
2023-10-15T01:55:54.753Z,102082.25
2023-10-15T01:58:32.994Z,102075.47
2023-10-15T02:01:11.241Z,102081.75
2023-10-15T02:03:39.898Z,102087.13
2023-10-15T02:06:08.760Z,102085.63
2023-10-15T02:08:40.764Z,102091.91
2023-10-15T02:11:17.604Z,102084.09
2023-10-15T02:13:47.591Z,102084.28
2023-10-15T02:16:19.950Z,102081.84
2023-10-15T02:18:52.695Z,102079.94
2023-10-15T02:21:20.871Z,102078.81
2023-10-15T02:23:52.269Z,102085.72
2023-10-15T02:26:24.450Z,102086.28
2023-10-15T02:28:56.051Z,102080.31
2023-10-15T02:31:25.074Z,102083.28
2023-10-15T02:33:56.922Z,102073.84
2023-10-15T02:36:26.699Z,102075.94
2023-10-15T02:38:53.948Z,102077.94
2023-10-15T02:41:23.348Z,102085.97
2023-10-15T02:43:55.578Z,102077.19
2023-10-15T02:46:31.055Z,102088.75
2023-10-15T02:49:01.767Z,102088.53
2023-10-15T02:51:36.330Z,102084.53
2023-10-15T02:54:19.948Z,102093.81
2023-10-15T02:56:48.765Z,102092.31
2023-10-15T02:59:18.017Z,102093.75
2023-10-15T03:01:50.041Z,102095.34
2023-10-15T03:04:34.407Z,102101.47
2023-10-15T03:07:19.168Z,102094.19
2023-10-15T03:09:50.268Z,102092.38
2023-10-15T03:12:19.527Z,102096.59
2023-10-15T03:14:47.870Z,102099.81
2023-10-15T03:17:26.340Z,102101.53
2023-10-15T03:19:56.329Z,102100.69
2023-10-15T03:22:26.231Z,102088.16
2023-10-15T03:24:55.315Z,102091.78
2023-10-15T03:27:27.825Z,102099.75
2023-10-15T03:29:58.169Z,102101.53
2023-10-15T03:32:32.992Z,102099.63
2023-10-15T03:35:06.784Z,102101.34
2023-10-15T03:37:39.865Z,102105.75
2023-10-15T03:40:15.042Z,102100.22
2023-10-15T03:42:43.287Z,102098.28
2023-10-15T03:45:18.184Z,102106.97
2023-10-15T03:47:48.580Z,102103.56
2023-10-15T03:50:17.105Z,102104.78
2023-10-15T03:52:46.507Z,102113.13
2023-10-15T03:55:14.796Z,102110.19
2023-10-15T03:57:42.954Z,102107.13
2023-10-15T04:00:35.701Z,102115.16
2023-10-15T04:03:18.552Z,102122.50
2023-10-15T04:05:54.007Z,102123.66
2023-10-15T04:08:26.296Z,102123.00
2023-10-15T04:10:57.865Z,102119.78
2023-10-15T04:13:27.742Z,102123.88
2023-10-15T04:15:56.558Z,102126.84
2023-10-15T04:18:27.396Z,102127.16
2023-10-15T04:20:57.249Z,102130.88
2023-10-15T04:23:32.935Z,102117.50
2023-10-15T04:26:03.795Z,102125.25
2023-10-15T04:28:35.210Z,102118.94
2023-10-15T04:31:11.094Z,102127.63
2023-10-15T04:33:42.822Z,102132.88
2023-10-15T04:36:10.989Z,102127.75
2023-10-15T04:38:39.433Z,102128.66
2023-10-15T04:41:07.674Z,102142.16
2023-10-15T04:43:43.448Z,102141.41
2023-10-15T04:46:18.379Z,102138.78
2023-10-15T04:48:51.900Z,102136.31
2023-10-15T04:51:21.217Z,102141.09
2023-10-15T04:53:50.654Z,102139.56
2023-10-15T04:56:19.206Z,102141.66
2023-10-15T04:58:47.900Z,102143.91
2023-10-15T05:01:16.263Z,102144.28
2023-10-15T05:03:47.439Z,102143.69
2023-10-15T05:06:18.034Z,102153.69
2023-10-15T05:08:49.099Z,102149.47
2023-10-15T05:11:23.266Z,102140.00
2023-10-15T05:13:51.934Z,102144.66
2023-10-15T05:16:20.466Z,102145.81
2023-10-15T05:18:49.730Z,102148.06
2023-10-15T05:21:19.285Z,102154.81
2023-10-15T05:23:47.607Z,102148.78
2023-10-15T05:26:17.760Z,102141.97
2023-10-15T05:28:48.653Z,102144.91
2023-10-15T05:31:17.380Z,102138.91
2023-10-15T05:33:45.602Z,102134.72
2023-10-15T05:36:13.646Z,102136.91
2023-10-15T05:38:43.464Z,102137.41
2023-10-15T05:41:12.089Z,102134.38
2023-10-15T05:43:40.277Z,102141.06
2023-10-15T05:46:09.631Z,102134.53
2023-10-15T05:48:37.998Z,102136.69
2023-10-15T05:51:06.284Z,102142.25
2023-10-15T05:53:34.547Z,102144.41
2023-10-15T05:56:05.333Z,102142.59
2023-10-15T05:58:33.927Z,102140.09
2023-10-15T06:01:04.755Z,102139.22
2023-10-15T06:03:33.013Z,102152.56
2023-10-15T06:06:03.361Z,102142.91
2023-10-15T06:08:31.659Z,102140.19
2023-10-15T06:10:59.892Z,102145.56
2023-10-15T06:13:29.592Z,102154.38
2023-10-15T06:15:58.941Z,102148.94
2023-10-15T06:18:27.272Z,102148.91
2023-10-15T06:20:55.618Z,102150.66
2023-10-15T06:23:23.827Z,102154.03
2023-10-15T06:25:52.135Z,102143.47
2023-10-15T06:28:21.561Z,102160.34
2023-10-15T06:30:51.391Z,102155.00
2023-10-15T06:33:19.583Z,102160.25
2023-10-15T06:35:47.819Z,102154.47
2023-10-15T06:38:18.988Z,102166.41
2023-10-15T06:40:47.212Z,102175.59
2023-10-15T06:43:16.853Z,102178.50
2023-10-15T06:45:45.231Z,102188.41
2023-10-15T06:48:15.284Z,102172.66
2023-10-15T06:50:44.012Z,102182.38
2023-10-15T06:53:12.182Z,102181.56
2023-10-15T06:55:40.381Z,102186.03
2023-10-15T06:58:08.509Z,102178.13
2023-10-15T07:00:38.000Z,102180.66
2023-10-15T07:03:07.098Z,102181.41
2023-10-15T07:05:39.461Z,102183.13
2023-10-15T07:08:08.772Z,102185.66
2023-10-15T07:10:38.323Z,102186.41
2023-10-15T07:13:06.656Z,102189.72
2023-10-15T07:15:36.924Z,102196.56
2023-10-15T07:18:06.527Z,102198.19
2023-10-15T07:20:36.216Z,102199.75
2023-10-15T07:23:04.828Z,102210.19
2023-10-15T07:25:39.898Z,102205.47
2023-10-15T07:28:08.471Z,102199.97
2023-10-15T07:30:37.011Z,102209.59
2023-10-15T07:33:05.878Z,102220.91
2023-10-15T07:35:34.317Z,102222.31
2023-10-15T07:38:04.727Z,102220.25
2023-10-15T07:40:35.190Z,102230.50
2023-10-15T07:43:04.299Z,102224.81
2023-10-15T07:45:34.199Z,102226.25
2023-10-15T07:48:04.074Z,102230.31
2023-10-15T07:50:34.605Z,102235.22
2023-10-15T07:53:06.088Z,102236.53
2023-10-15T07:55:35.355Z,102242.41
2023-10-15T07:58:04.257Z,102234.03
2023-10-15T08:00:32.737Z,102236.28
2023-10-15T08:03:02.741Z,102248.44
2023-10-15T08:05:34.456Z,102246.34
2023-10-15T08:08:07.164Z,102248.66
2023-10-15T08:10:53.331Z,102255.22
2023-10-15T08:13:21.464Z,102257.47
2023-10-15T08:15:50.138Z,102258.66
2023-10-15T08:18:18.320Z,102258.97
2023-10-15T08:20:47.622Z,102258.44
2023-10-15T08:23:17.241Z,102263.25
2023-10-15T08:25:45.373Z,102266.31
2023-10-15T08:28:13.628Z,102259.66
2023-10-15T08:30:42.862Z,102265.25
2023-10-15T08:33:13.780Z,102270.16
2023-10-15T08:35:42.697Z,102264.41
2023-10-15T08:38:14.115Z,102260.31
2023-10-15T08:40:47.105Z,102268.72
2023-10-15T08:43:21.673Z,102262.81
2023-10-15T08:45:52.706Z,102277.34
2023-10-15T08:48:26.704Z,102274.88
2023-10-15T08:50:57.366Z,102284.06
2023-10-15T08:53:30.205Z,102276.59
2023-10-15T08:56:04.381Z,102282.13
2023-10-15T08:58:34.218Z,102283.66
2023-10-15T09:01:05.354Z,102291.97
2023-10-15T09:03:36.154Z,102285.34
2023-10-15T09:06:06.837Z,102283.16
2023-10-15T09:08:36.620Z,102271.94
2023-10-15T09:11:06.247Z,102282.81
2023-10-15T09:13:38.026Z,102276.09
2023-10-15T09:16:07.341Z,102270.31
2023-10-15T09:18:37.471Z,102274.31
2023-10-15T09:21:06.242Z,102279.81
2023-10-15T09:23:36.783Z,102269.22
2023-10-15T09:26:11.998Z,102262.16
2023-10-15T09:28:40.372Z,102265.72
2023-10-15T09:31:10.928Z,102268.31
2023-10-15T09:33:40.160Z,102272.84
2023-10-15T09:36:09.241Z,102263.72
2023-10-15T09:38:38.521Z,102266.84
2023-10-15T09:41:11.786Z,102261.53
2023-10-15T09:43:39.992Z,102261.06
2023-10-15T09:46:09.262Z,102260.91
2023-10-15T09:48:39.628Z,102262.88
2023-10-15T09:51:09.397Z,102266.28
2023-10-15T09:53:38.067Z,102272.75
2023-10-15T09:56:14.794Z,102266.19
2023-10-15T09:58:44.546Z,102269.19
2023-10-15T10:01:27.676Z,102276.94
2023-10-15T10:04:53.936Z,102277.34
2023-10-15T10:07:44.425Z,102282.78
2023-10-15T10:10:45.490Z,102284.38
2023-10-15T10:13:41.863Z,102289.63
2023-10-15T10:16:19.051Z,102282.41
2023-10-15T10:18:47.383Z,102291.34
2023-10-15T10:21:18.915Z,102292.09
2023-10-15T10:23:49.280Z,102292.84
2023-10-15T10:26:20.927Z,102288.16
2023-10-15T10:28:53.410Z,102281.53
2023-10-15T10:31:21.593Z,102279.41
2023-10-15T10:33:55.399Z,102289.34
2023-10-15T10:36:27.267Z,102284.88
2023-10-15T10:39:08.911Z,102284.03
2023-10-15T10:41:40.849Z,102280.75
2023-10-15T10:44:25.082Z,102280.41
2023-10-15T10:46:55.676Z,102278.31
2023-10-15T10:49:31.276Z,102282.38
2023-10-15T10:52:07.343Z,102282.91
2023-10-15T10:54:37.687Z,102270.78
2023-10-15T10:57:09.637Z,102275.19
2023-10-15T10:59:41.009Z,102290.00
2023-10-15T11:02:13.041Z,102283.88
2023-10-15T11:04:43.460Z,102279.59
2023-10-15T11:07:14.596Z,102267.59
2023-10-15T11:09:42.961Z,102273.31
2023-10-15T11:12:11.729Z,102279.97
2023-10-15T11:14:43.407Z,102274.19
2023-10-15T11:17:11.788Z,102272.69
2023-10-15T11:19:41.821Z,102279.31
2023-10-15T11:22:15.750Z,102270.97
2023-10-15T11:24:45.406Z,102275.59
2023-10-15T11:27:14.377Z,102270.06
2023-10-15T11:29:45.410Z,102275.56
2023-10-15T11:32:14.357Z,102264.16
2023-10-15T11:34:42.792Z,102270.66
2023-10-15T11:37:12.133Z,102261.03
2023-10-15T11:39:44.372Z,102265.06
2023-10-15T11:42:13.188Z,102262.97
2023-10-15T11:44:45.285Z,102262.44
2023-10-15T11:47:18.416Z,102257.50
2023-10-15T11:49:47.442Z,102260.56
2023-10-15T11:52:20.227Z,102255.69
2023-10-15T11:54:52.106Z,102258.56
2023-10-15T11:57:24.972Z,102263.50
2023-10-15T11:59:59.305Z,102262.31
2023-10-15T12:02:30.854Z,102256.38
2023-10-15T12:05:03.127Z,102260.56
2023-10-15T12:07:31.913Z,102256.91
2023-10-15T12:10:01.394Z,102249.69
2023-10-15T12:12:29.768Z,102251.69
2023-10-15T12:14:59.808Z,102256.59
2023-10-15T12:17:28.207Z,102254.03
2023-10-15T12:20:12.621Z,102253.09
2023-10-15T12:22:44.794Z,102252.81
2023-10-15T12:25:13.634Z,102250.81
2023-10-15T12:27:42.126Z,102248.09
2023-10-15T12:30:21.093Z,102244.84
2023-10-15T12:32:49.739Z,102242.56
2023-10-15T12:35:21.077Z,102248.09
2023-10-15T12:37:49.767Z,102242.00
2023-10-15T12:40:53.455Z,102249.97
2023-10-15T12:43:21.825Z,102244.13
2023-10-15T12:45:53.597Z,102239.44
2023-10-15T12:48:22.923Z,102240.28
2023-10-15T12:50:52.523Z,102231.00
2023-10-15T12:53:21.122Z,102229.47
2023-10-15T12:55:49.536Z,102229.88
2023-10-15T12:58:19.302Z,102237.28
2023-10-15T13:00:50.354Z,102228.88
2023-10-15T13:03:20.420Z,102228.88
2023-10-15T13:05:50.121Z,102225.03
2023-10-15T13:08:18.576Z,102225.97
2023-10-15T13:10:47.712Z,102219.69
2023-10-15T13:13:16.282Z,102209.72
2023-10-15T13:15:44.814Z,102216.84
2023-10-15T13:18:14.306Z,102207.94
2023-10-15T13:20:44.898Z,102204.59
2023-10-15T13:23:16.107Z,102212.41
2023-10-15T13:25:44.592Z,102208.00
2023-10-15T13:28:13.384Z,102207.69
2023-10-15T13:30:43.719Z,102208.47
2023-10-15T13:33:11.933Z,102200.13
2023-10-15T13:35:41.357Z,102197.19
2023-10-15T13:38:12.385Z,102191.81
2023-10-15T13:40:41.055Z,102202.94
2023-10-15T13:43:09.841Z,102206.81
2023-10-15T13:45:39.443Z,102192.19
2023-10-15T13:48:09.203Z,102199.38
2023-10-15T13:50:37.510Z,102203.63
2023-10-15T13:53:06.261Z,102201.91
2023-10-15T13:55:36.009Z,102195.25
2023-10-15T13:58:05.401Z,102192.84
2023-10-15T14:00:33.744Z,102196.09
2023-10-15T14:03:01.996Z,102197.34
2023-10-15T14:05:34.227Z,102192.19
2023-10-15T14:08:02.674Z,102188.13
2023-10-15T14:10:31.973Z,102192.38
2023-10-15T14:13:17.439Z,102184.16
2023-10-15T14:15:48.615Z,102178.00
2023-10-15T14:18:18.750Z,102185.66
2023-10-15T14:20:47.592Z,102180.88
2023-10-15T14:23:16.187Z,102169.28
2023-10-15T14:25:49.037Z,102162.16
2023-10-15T14:28:20.392Z,102166.31
2023-10-15T14:30:50.742Z,102160.28
2023-10-15T14:33:19.152Z,102161.41
2023-10-15T14:35:47.344Z,102164.00
2023-10-15T14:38:18.130Z,102150.56
2023-10-15T14:40:46.786Z,102159.19
2023-10-15T14:43:15.146Z,102160.28
2023-10-15T14:45:44.908Z,102149.88
2023-10-15T14:48:13.255Z,102159.06
2023-10-15T14:50:41.397Z,102153.63
2023-10-15T14:53:10.716Z,102154.13
2023-10-15T14:55:39.098Z,102150.22
2023-10-15T14:58:10.203Z,102144.25
2023-10-15T15:00:38.351Z,102143.91
2023-10-15T15:03:11.406Z,102144.72
2023-10-15T15:05:39.656Z,102151.84
2023-10-15T15:08:09.024Z,102137.16
2023-10-15T15:10:37.237Z,102143.22
2023-10-15T15:13:05.820Z,102137.47
2023-10-15T15:15:34.221Z,102152.56
2023-10-15T15:18:02.408Z,102136.31
2023-10-15T15:20:32.050Z,102141.38
2023-10-15T15:23:00.489Z,102139.69
2023-10-15T15:25:32.320Z,102134.63
2023-10-15T15:28:00.844Z,102140.09
2023-10-15T15:30:28.981Z,102138.91
2023-10-15T15:32:57.149Z,102138.28
2023-10-15T15:35:25.603Z,102133.06
2023-10-15T15:37:55.501Z,102137.97
2023-10-15T15:40:23.685Z,102134.09
2023-10-15T15:42:51.806Z,102137.09
2023-10-15T15:45:20.074Z,102136.44
2023-10-15T15:47:50.284Z,102142.72
2023-10-15T15:50:20.534Z,102148.59
2023-10-15T15:52:48.857Z,102137.50
2023-10-15T15:55:50.181Z,102140.34
2023-10-15T15:58:20.977Z,102134.63
2023-10-15T16:00:49.448Z,102133.34
2023-10-15T16:03:17.737Z,102136.16
2023-10-15T16:05:49.073Z,102127.75
2023-10-15T16:08:17.357Z,102125.63
2023-10-15T16:10:46.894Z,102119.59
2023-10-15T16:13:15.230Z,102125.41
2023-10-15T16:15:43.400Z,102127.25
2023-10-15T16:18:11.595Z,102126.38
2023-10-15T16:20:40.315Z,102129.34
2023-10-15T16:23:08.397Z,102127.13
2023-10-15T16:25:36.569Z,102129.53
2023-10-15T16:28:07.613Z,102120.41
2023-10-15T16:30:36.053Z,102121.06
2023-10-15T16:33:04.415Z,102113.03
2023-10-15T16:35:32.869Z,102120.91
2023-10-15T16:38:01.161Z,102123.81
2023-10-15T16:40:34.228Z,102118.72
2023-10-15T16:43:03.603Z,102118.56
2023-10-15T16:45:34.364Z,102120.00
2023-10-15T16:48:03.013Z,102120.56
2023-10-15T16:50:31.023Z,102109.72
2023-10-15T16:52:59.520Z,102114.00
2023-10-15T16:55:27.971Z,102114.66
2023-10-15T16:57:56.117Z,102121.50
2023-10-15T17:00:25.567Z,102117.69
2023-10-15T17:02:55.271Z,102125.50
2023-10-15T17:05:23.848Z,102121.56
2023-10-15T17:07:52.013Z,102122.19
2023-10-15T17:13:28.802Z,102114.03
2023-10-15T17:15:56.808Z,102113.34
2023-10-15T17:18:26.465Z,102120.09
2023-10-15T17:20:54.570Z,102121.19
2023-10-15T17:23:22.954Z,102127.97
2023-10-15T17:26:05.970Z,102128.31
2023-10-15T17:28:35.452Z,102127.59
2023-10-15T17:31:04.324Z,102133.19
2023-10-15T17:33:34.126Z,102125.22
2023-10-15T17:36:02.269Z,102119.69
2023-10-15T17:38:30.327Z,102117.75
2023-10-15T17:40:58.528Z,102118.38
2023-10-15T17:43:29.626Z,102118.09
2023-10-15T17:45:57.660Z,102120.47
2023-10-15T17:48:26.733Z,102121.06
2023-10-15T17:50:56.674Z,102123.28
2023-10-15T17:53:25.526Z,102121.97
2023-10-15T17:55:56.188Z,102121.44
2023-10-15T17:58:27.004Z,102127.09
2023-10-15T18:00:55.473Z,102121.91
2023-10-15T18:03:23.905Z,102124.25
2023-10-15T18:05:52.314Z,102128.84
2023-10-15T18:08:22.887Z,102121.94
2023-10-15T18:10:55.682Z,102122.16
2023-10-15T18:13:23.776Z,102118.81
2023-10-15T18:15:51.803Z,102114.72
2023-10-15T18:18:19.914Z,102112.22
2023-10-15T18:20:50.767Z,102109.78
2023-10-15T18:23:19.594Z,102109.94
2023-10-15T18:25:49.393Z,102110.13
2023-10-15T18:28:17.547Z,102110.13
2023-10-15T18:30:54.258Z,102101.47
2023-10-15T18:33:22.579Z,102098.84
2023-10-15T18:35:50.765Z,102093.63
2023-10-15T18:38:19.017Z,102089.50
2023-10-15T18:41:21.563Z,102081.47
2023-10-15T18:43:52.119Z,102078.13
2023-10-15T18:46:20.115Z,102079.09
2023-10-15T18:48:48.281Z,102066.00
2023-10-15T18:51:36.460Z,102070.50
2023-10-15T18:54:05.701Z,102069.94
2023-10-15T18:56:34.685Z,102069.06
2023-10-15T18:59:04.841Z,102080.94
2023-10-15T19:01:34.075Z,102067.72
2023-10-15T19:04:02.581Z,102070.59
2023-10-15T19:06:30.959Z,102077.81
2023-10-15T19:08:59.121Z,102071.16
2023-10-15T19:11:29.161Z,102066.94
2023-10-15T19:13:58.393Z,102073.44
2023-10-15T19:16:27.970Z,102079.06
2023-10-15T19:18:56.047Z,102071.16
2023-10-15T19:21:25.852Z,102078.41
2023-10-15T19:23:54.449Z,102077.66
2023-10-15T19:26:22.642Z,102072.47
2023-10-15T19:28:51.569Z,102063.69
2023-10-15T19:31:20.255Z,102062.94
2023-10-15T19:33:49.902Z,102057.75
2023-10-15T19:36:18.484Z,102061.41
2023-10-15T19:38:46.817Z,102063.13
2023-10-15T19:41:17.543Z,102067.72
2023-10-15T19:43:46.727Z,102071.25
2023-10-15T19:46:15.664Z,102071.25
2023-10-15T19:48:43.818Z,102072.09
2023-10-15T19:51:14.375Z,102065.03
2023-10-15T19:53:42.518Z,102062.38
2023-10-15T19:56:11.618Z,102065.91
2023-10-15T19:58:39.958Z,102065.03
2023-10-15T20:01:10.467Z,102061.47
2023-10-15T20:03:47.327Z,102064.16
2023-10-15T20:06:24.783Z,102064.25
2023-10-15T20:08:52.863Z,102066.06
2023-10-15T20:11:21.017Z,102062.44
2023-10-15T20:13:49.125Z,102063.50
2023-10-15T20:16:19.013Z,102071.53
2023-10-15T20:18:48.591Z,102063.69
2023-10-15T20:21:17.004Z,102069.19
2023-10-15T20:23:46.600Z,102068.44
2023-10-15T20:26:14.702Z,102065.94
2023-10-15T20:28:42.824Z,102073.31
2023-10-15T20:31:11.003Z,102064.59
2023-10-15T20:33:39.199Z,102066.44
2023-10-15T20:36:08.102Z,102066.53
2023-10-15T20:38:36.951Z,102065.00
2023-10-15T20:41:07.303Z,102072.22
2023-10-15T20:43:36.578Z,102066.00
2023-10-15T20:46:04.937Z,102069.53
2023-10-15T20:48:33.133Z,102067.72
2023-10-15T20:51:01.226Z,102060.59
2023-10-15T20:53:29.330Z,102059.81
2023-10-15T20:55:57.800Z,102058.09
2023-10-15T20:58:27.601Z,102053.78
2023-10-15T21:00:55.903Z,102053.03
2023-10-15T21:03:27.283Z,102046.03
2023-10-15T21:05:55.693Z,102029.34
2023-10-15T21:08:24.699Z,102039.19
2023-10-15T21:10:52.930Z,102037.63
2023-10-15T21:13:21.131Z,102045.72
2023-10-15T21:15:50.996Z,102052.13
2023-10-15T21:18:19.344Z,102029.97
2023-10-15T21:20:48.236Z,102045.34
2023-10-15T21:23:16.397Z,102049.72
2023-10-15T21:25:44.676Z,102043.63
2023-10-15T21:28:14.367Z,102049.81
2023-10-15T21:30:42.675Z,102040.94
2023-10-15T21:33:12.253Z,102029.38
2023-10-15T21:35:40.465Z,102030.25
2023-10-15T21:38:08.612Z,102029.56
2023-10-15T21:40:37.839Z,102028.78
2023-10-15T21:43:06.821Z,102023.66
2023-10-15T21:45:35.084Z,102020.97
2023-10-15T21:48:04.371Z,102036.22
2023-10-15T21:50:33.996Z,102030.22
2023-10-15T21:53:02.086Z,102020.47
2023-10-15T21:55:32.042Z,102022.38
2023-10-15T21:58:01.607Z,102020.66
2023-10-15T22:00:37.532Z,102015.31
2023-10-15T22:03:06.707Z,102017.28
2023-10-15T22:05:38.809Z,102009.44
2023-10-15T22:08:07.710Z,102010.41
2023-10-15T22:10:36.670Z,102012.38
2023-10-15T22:13:08.318Z,102006.41
2023-10-15T22:15:36.548Z,102002.94
2023-10-15T22:18:05.104Z,102002.31
2023-10-15T22:20:46.311Z,102004.22
2023-10-15T22:23:18.644Z,102005.19
2023-10-15T22:25:49.374Z,102007.06
2023-10-15T22:28:18.770Z,102001.81
2023-10-15T22:30:49.140Z,102001.91
2023-10-15T22:33:17.286Z,102002.06
2023-10-15T22:35:46.246Z,101996.84
2023-10-15T22:38:18.403Z,101989.09
2023-10-15T22:40:46.787Z,101986.41
2023-10-15T22:43:15.633Z,101983.91
2023-10-15T22:45:43.744Z,101985.03
2023-10-15T22:48:14.225Z,101979.69
2023-10-15T22:50:42.705Z,101991.44
2023-10-15T22:53:12.755Z,101987.81
2023-10-15T22:55:43.060Z,101986.25
2023-10-15T22:58:11.659Z,101991.59
2023-10-15T23:00:40.917Z,101981.97
2023-10-15T23:03:11.237Z,101979.47
2023-10-15T23:05:42.011Z,101982.13
2023-10-15T23:08:11.361Z,101975.13
2023-10-15T23:10:41.281Z,101973.53
2023-10-15T23:13:11.384Z,101973.53
2023-10-15T23:15:43.075Z,101970.09
2023-10-15T23:18:17.966Z,101971.81
2023-10-15T23:20:54.584Z,101962.16
2023-10-15T23:23:23.354Z,101958.53
2023-10-15T23:25:53.775Z,101949.78
2023-10-15T23:28:25.812Z,101956.75
2023-10-15T23:30:57.912Z,101955.09
2023-10-15T23:33:30.674Z,101961.13
2023-10-15T23:35:59.727Z,101951.41
2023-10-15T23:38:28.064Z,101941.66
2023-10-15T23:40:57.248Z,101947.78
2023-10-15T23:43:31.262Z,101950.25
2023-10-15T23:46:06.082Z,101946.69
2023-10-15T23:48:38.632Z,101943.13
2023-10-15T23:51:13.127Z,101946.47
2023-10-15T23:53:41.989Z,101940.19
2023-10-15T23:56:13.517Z,101948.88
2023-10-15T23:58:51.684Z,101933.72
